createdAt,value
2022-12-23T00:00:24.698Z,100.00
2022-12-23T00:15:15.699Z,100.00
2022-12-23T00:30:08.432Z,100.00
2022-12-23T00:45:01.137Z,100.00
2022-12-23T00:59:52.858Z,100.00
2022-12-23T01:14:45.294Z,100.00
2022-12-23T01:29:36.502Z,100.00
2022-12-23T01:44:46.393Z,100.00
2022-12-23T02:00:02.066Z,100.00
2022-12-23T02:15:22.195Z,100.00
2022-12-23T02:30:22.239Z,100.00
2022-12-23T02:45:16.318Z,100.00
2022-12-23T03:00:08.677Z,100.00
2022-12-23T03:15:09.875Z,100.00
2022-12-23T03:30:07.338Z,100.00
2022-12-23T03:45:36.877Z,100.00
2022-12-23T03:59:53.097Z,100.00
2022-12-23T04:44:30.054Z,100.00
2022-12-23T04:59:21.718Z,100.00
2022-12-23T05:14:14.398Z,100.00
2022-12-23T05:29:06.274Z,100.00
2022-12-23T05:43:57.998Z,100.00
2022-12-23T05:58:49.512Z,100.00
2022-12-23T06:13:41.177Z,100.00
2022-12-23T06:28:32.409Z,100.00
2022-12-23T06:43:23.870Z,100.00
2022-12-23T06:58:16.048Z,100.00
2022-12-23T07:13:08.190Z,100.00
2022-12-23T07:28:00.448Z,100.00
2022-12-23T07:42:51.248Z,100.00
2022-12-23T07:57:42.786Z,100.00
2022-12-23T08:12:34.279Z,100.00
2022-12-23T08:27:26.140Z,100.00
2022-12-23T08:42:18.167Z,100.00
2022-12-23T08:57:09.949Z,100.00
2022-12-23T09:12:01.955Z,100.00
2022-12-23T09:26:54.407Z,100.00
2022-12-23T09:41:52.300Z,100.00
2022-12-23T09:56:58.869Z,100.00
2022-12-23T10:11:55.348Z,100.00
2022-12-23T10:26:46.829Z,100.00
2022-12-23T10:41:41.574Z,100.00
2022-12-23T10:56:36.433Z,100.00
2022-12-23T11:11:52.936Z,100.00
2022-12-23T11:27:02.246Z,100.00
2022-12-23T11:41:56.245Z,100.00
2022-12-23T11:56:48.352Z,100.00
2022-12-23T12:11:59.094Z,100.00
2022-12-23T12:26:57.326Z,100.00
2022-12-23T12:42:05.046Z,100.00
2022-12-23T12:56:53.849Z,100.00
2022-12-23T13:12:00.387Z,100.00
2022-12-23T13:26:59.468Z,100.00
2022-12-23T13:41:56.444Z,100.00
2022-12-23T13:57:00.190Z,100.00
2022-12-23T14:12:01.109Z,100.00
2022-12-23T14:42:42.199Z,100.00
2022-12-23T14:57:37.325Z,100.00
2022-12-23T15:12:35.114Z,100.00
2022-12-23T15:27:31.569Z,100.00
2022-12-23T15:42:28.358Z,100.00
2022-12-23T15:57:24.193Z,100.00
2022-12-23T16:27:06.899Z,100.00
2022-12-23T16:41:58.922Z,100.00
2022-12-23T16:56:50.537Z,100.00
2022-12-23T17:11:41.879Z,100.00
2022-12-23T17:26:32.679Z,100.00
2022-12-23T17:41:26.496Z,100.00
2022-12-23T17:56:21.647Z,100.00
2022-12-23T18:11:18.959Z,100.00
2022-12-23T18:26:13.939Z,100.00
2022-12-23T18:41:05.806Z,100.00
2022-12-23T18:55:56.859Z,100.00
2022-12-23T19:10:48.428Z,100.00
2022-12-23T19:25:41.649Z,100.00
2022-12-23T19:40:31.619Z,100.00
2022-12-23T19:55:24.173Z,100.00
2022-12-23T20:10:14.925Z,100.00
2022-12-23T20:25:06.626Z,100.00
2022-12-23T20:54:51.457Z,95.86
2022-12-23T21:09:45.196Z,94.45
2022-12-23T21:24:36.618Z,92.04
2022-12-23T21:39:26.763Z,90.48
2022-12-23T21:54:17.820Z,89.78
2022-12-23T22:09:08.946Z,88.95
2022-12-23T22:24:00.314Z,86.83
2022-12-23T22:38:53.263Z,85.73
2022-12-23T23:08:39.872Z,90.19
2022-12-23T23:23:31.754Z,86.81
2022-12-23T23:38:23.080Z,86.38
2022-12-23T23:53:14.321Z,85.00
